createdAt,value
2017-08-18T00:00:36.379Z,969.6
2017-08-18T00:01:36.377Z,969.63
2017-08-18T00:02:36.374Z,969.65
2017-08-18T00:03:36.372Z,969.63
2017-08-18T00:04:36.371Z,969.6
2017-08-18T00:05:36.368Z,969.63
2017-08-18T00:06:36.366Z,969.64
2017-08-18T00:07:36.363Z,969.63
2017-08-18T00:08:36.362Z,969.65
2017-08-18T00:09:36.362Z,969.62
2017-08-18T00:10:36.358Z,969.64
2017-08-18T00:11:36.353Z,969.63
2017-08-18T00:12:36.352Z,969.65
2017-08-18T00:13:36.352Z,969.57
2017-08-18T00:14:36.348Z,969.58
2017-08-18T00:15:36.344Z,969.54
2017-08-18T00:16:36.343Z,969.54
2017-08-18T00:17:36.345Z,969.55
2017-08-18T00:18:36.337Z,969.53
2017-08-18T00:19:36.336Z,969.57
2017-08-18T00:20:36.333Z,969.55
2017-08-18T00:21:36.333Z,969.55
2017-08-18T00:22:36.329Z,969.53
2017-08-18T00:23:36.327Z,969.55
2017-08-18T00:24:36.325Z,969.52
2017-08-18T00:25:36.324Z,969.52
2017-08-18T00:26:36.321Z,969.51
2017-08-18T00:27:36.318Z,969.53
2017-08-18T00:28:36.315Z,969.5
2017-08-18T00:29:36.315Z,969.52
2017-08-18T00:30:36.312Z,969.51
2017-08-18T00:31:36.309Z,969.58
2017-08-18T00:32:36.308Z,969.56
2017-08-18T00:33:36.304Z,969.51
2017-08-18T00:34:36.299Z,969.56
2017-08-18T00:35:36.302Z,969.57
2017-08-18T00:36:36.298Z,969.55
2017-08-18T00:37:36.296Z,969.56
2017-08-18T00:38:36.297Z,969.55
2017-08-18T00:39:36.292Z,969.57
2017-08-18T00:40:36.288Z,969.55
2017-08-18T00:41:36.285Z,969.56
2017-08-18T00:42:36.284Z,969.52
2017-08-18T00:43:36.281Z,969.53
2017-08-18T00:44:36.278Z,969.56
2017-08-18T00:45:36.276Z,969.54
2017-08-18T00:46:36.274Z,969.55
2017-08-18T00:47:36.271Z,969.54
2017-08-18T00:48:36.269Z,969.53
2017-08-18T00:49:36.268Z,969.54
2017-08-18T00:50:36.265Z,969.55
2017-08-18T00:51:36.261Z,969.54
2017-08-18T00:52:36.262Z,969.54
2017-08-18T00:53:36.258Z,969.57
2017-08-18T00:54:36.257Z,969.56
2017-08-18T00:55:36.253Z,969.59
2017-08-18T00:56:36.251Z,969.57
2017-08-18T00:57:36.249Z,969.55
2017-08-18T00:58:36.247Z,969.54
2017-08-18T00:59:36.246Z,969.54
2017-08-18T01:00:36.243Z,969.57
2017-08-18T01:01:36.241Z,969.57
2017-08-18T01:02:36.237Z,969.53
2017-08-18T01:03:36.236Z,969.56
2017-08-18T01:04:36.234Z,969.59
2017-08-18T01:05:36.231Z,969.57
2017-08-18T01:06:36.228Z,969.57
2017-08-18T01:07:36.230Z,969.54
2017-08-18T01:08:36.224Z,969.54
2017-08-18T01:09:36.221Z,969.58
2017-08-18T01:10:36.219Z,969.53
2017-08-18T01:11:36.218Z,969.59
2017-08-18T01:12:36.215Z,969.54
2017-08-18T01:13:36.212Z,969.47
2017-08-18T01:14:36.211Z,969.51
2017-08-18T01:15:36.208Z,969.46
2017-08-18T01:16:36.207Z,969.49
2017-08-18T01:17:36.202Z,969.46
2017-08-18T01:18:36.201Z,969.44
2017-08-18T01:19:36.199Z,969.45
2017-08-18T01:20:36.196Z,969.4
2017-08-18T01:21:36.193Z,969.42
2017-08-18T01:22:36.192Z,969.41
2017-08-18T01:23:36.190Z,969.4
2017-08-18T01:24:36.186Z,969.36
2017-08-18T01:25:36.186Z,969.38
2017-08-18T01:26:36.182Z,969.4
2017-08-18T01:27:36.183Z,969.38
2017-08-18T01:28:36.176Z,969.37
2017-08-18T01:29:36.174Z,969.4
2017-08-18T01:30:36.173Z,969.37
2017-08-18T01:31:36.168Z,969.37
2017-08-18T01:32:36.168Z,969.34
2017-08-18T01:33:36.165Z,969.35
2017-08-18T01:34:36.163Z,969.34
2017-08-18T01:35:36.160Z,969.33
2017-08-18T01:36:36.159Z,969.33
2017-08-18T01:37:36.155Z,969.34
2017-08-18T01:38:36.154Z,969.36
2017-08-18T01:39:36.149Z,969.33
2017-08-18T01:40:36.148Z,969.38
2017-08-18T01:41:36.148Z,969.37
2017-08-18T01:42:36.144Z,969.36
2017-08-18T01:43:36.140Z,969.37
2017-08-18T01:44:36.139Z,969.36
2017-08-18T01:45:36.136Z,969.35
2017-08-18T01:46:36.136Z,969.32
2017-08-18T01:47:36.133Z,969.37
2017-08-18T01:48:36.131Z,969.32
2017-08-18T01:49:36.128Z,969.31
2017-08-18T01:50:36.124Z,969.32
2017-08-18T01:51:36.125Z,969.31
2017-08-18T01:52:36.121Z,969.32
2017-08-18T01:53:36.118Z,969.3
2017-08-18T01:54:36.114Z,969.3
2017-08-18T01:55:36.111Z,969.3
2017-08-18T01:56:36.111Z,969.3
2017-08-18T01:57:36.107Z,969.3
2017-08-18T01:58:36.106Z,969.31
2017-08-18T01:59:36.104Z,969.33
2017-08-18T02:00:36.103Z,969.33
2017-08-18T02:01:36.098Z,969.32
2017-08-18T02:02:36.095Z,969.3
2017-08-18T02:03:36.093Z,969.3
2017-08-18T02:04:36.091Z,969.33
2017-08-18T02:05:36.093Z,969.3
2017-08-18T02:06:36.086Z,969.27
2017-08-18T02:07:36.086Z,969.32
2017-08-18T02:08:36.082Z,969.3
2017-08-18T02:09:36.078Z,969.3
2017-08-18T02:10:36.077Z,969.23
2017-08-18T02:11:36.074Z,969.24
2017-08-18T02:12:36.070Z,969.22
2017-08-18T02:13:36.068Z,969.22
2017-08-18T02:14:36.068Z,969.23
2017-08-18T02:15:36.064Z,969.2
2017-08-18T02:16:36.062Z,969.19
2017-08-18T02:17:36.063Z,969.19
2017-08-18T02:18:36.057Z,969.18
2017-08-18T02:19:36.054Z,969.17
2017-08-18T02:20:36.051Z,969.19
2017-08-18T02:21:36.050Z,969.17
2017-08-18T02:22:36.047Z,969.16
2017-08-18T02:23:36.044Z,969.17
2017-08-18T02:24:36.042Z,969.14
2017-08-18T02:25:36.039Z,969.12
2017-08-18T02:26:36.037Z,969.1
2017-08-18T02:27:36.034Z,969.08
2017-08-18T02:28:36.033Z,969.05
2017-08-18T02:29:36.030Z,969.06
2017-08-18T02:30:36.027Z,969.04
2017-08-18T02:31:36.025Z,969.03
2017-08-18T02:32:36.024Z,969.04
2017-08-18T02:33:36.020Z,969.01
2017-08-18T02:34:36.018Z,969
2017-08-18T02:35:36.018Z,969.02
2017-08-18T02:36:36.017Z,968.99
2017-08-18T02:37:36.011Z,969.02
2017-08-18T02:38:36.008Z,969
2017-08-18T02:39:36.006Z,968.96
2017-08-18T02:40:36.004Z,968.97
2017-08-18T02:41:36.001Z,968.98
2017-08-18T02:42:35.999Z,968.96
2017-08-18T02:43:35.997Z,968.98
2017-08-18T02:44:35.993Z,968.94
2017-08-18T02:45:35.991Z,968.99
2017-08-18T02:46:35.989Z,968.94
2017-08-18T02:47:35.987Z,968.97
2017-08-18T02:48:35.983Z,968.98
2017-08-18T02:49:35.981Z,968.96
2017-08-18T02:50:35.979Z,968.95
2017-08-18T02:51:35.977Z,968.97
2017-08-18T02:52:35.972Z,968.96
2017-08-18T02:53:35.971Z,968.94
2017-08-18T02:54:35.970Z,968.95
2017-08-18T02:55:35.966Z,968.94
2017-08-18T02:56:35.963Z,968.9
2017-08-18T02:57:35.960Z,968.87
2017-08-18T02:58:35.958Z,968.89
2017-08-18T02:59:35.954Z,968.91
2017-08-18T03:00:35.953Z,968.94
2017-08-18T03:01:35.951Z,968.91
2017-08-18T03:02:35.948Z,968.92
2017-08-18T03:03:35.945Z,968.91
2017-08-18T03:04:35.944Z,968.98
2017-08-18T03:05:35.942Z,968.95
2017-08-18T03:06:35.938Z,968.91
2017-08-18T03:07:35.937Z,968.95
2017-08-18T03:08:35.934Z,968.89
2017-08-18T03:09:35.931Z,968.91
2017-08-18T03:10:35.927Z,968.86
2017-08-18T03:11:35.925Z,968.82
2017-08-18T03:12:35.924Z,968.81
2017-08-18T03:13:35.922Z,968.83
2017-08-18T03:14:35.917Z,968.79
2017-08-18T03:15:35.916Z,968.79
2017-08-18T03:16:35.913Z,968.81
2017-08-18T03:17:35.910Z,968.79
2017-08-18T03:18:35.913Z,968.82
2017-08-18T03:19:35.907Z,968.81
2017-08-18T03:20:35.903Z,968.81
2017-08-18T03:21:35.900Z,968.84
2017-08-18T03:22:35.898Z,968.8
2017-08-18T03:23:35.896Z,968.85
2017-08-18T03:24:35.894Z,968.83
2017-08-18T03:25:35.889Z,968.85
2017-08-18T03:26:35.887Z,968.83
2017-08-18T03:27:35.885Z,968.86
2017-08-18T03:28:35.882Z,968.83
2017-08-18T03:29:35.879Z,968.85
2017-08-18T03:30:35.876Z,968.82
2017-08-18T03:31:35.875Z,968.86
2017-08-18T03:32:35.872Z,968.87
2017-08-18T03:33:35.870Z,968.85
2017-08-18T03:34:35.868Z,968.9
2017-08-18T03:35:35.866Z,968.87
2017-08-18T03:36:35.862Z,968.89
2017-08-18T03:37:35.860Z,968.9
2017-08-18T03:38:35.858Z,968.96
2017-08-18T03:39:35.854Z,968.94
2017-08-18T03:40:35.850Z,968.95
2017-08-18T03:41:35.848Z,968.97
2017-08-18T03:42:35.844Z,968.93
2017-08-18T03:43:35.843Z,968.94
2017-08-18T03:44:35.841Z,968.93
2017-08-18T03:45:35.839Z,968.94
2017-08-18T03:46:35.839Z,968.95
2017-08-18T03:47:35.832Z,968.89
2017-08-18T03:48:35.831Z,968.93
2017-08-18T03:49:35.828Z,968.93
2017-08-18T03:50:35.826Z,968.9
2017-08-18T03:51:35.822Z,968.86
2017-08-18T03:52:35.822Z,968.9
2017-08-18T03:53:35.818Z,968.88
2017-08-18T03:54:35.815Z,968.9
2017-08-18T03:55:35.816Z,968.87
2017-08-18T03:56:35.812Z,968.87
2017-08-18T03:57:35.808Z,968.88
2017-08-18T03:58:35.809Z,968.88
2017-08-18T03:59:35.803Z,968.89
2017-08-18T04:00:35.800Z,968.91
2017-08-18T04:01:35.796Z,968.92
2017-08-18T04:02:35.794Z,968.93
2017-08-18T04:03:35.792Z,968.87
2017-08-18T04:04:35.790Z,968.89
2017-08-18T04:05:35.788Z,968.89
2017-08-18T04:06:35.784Z,968.87
2017-08-18T04:07:35.782Z,968.89
2017-08-18T04:08:35.780Z,968.88
2017-08-18T04:09:35.776Z,968.85
2017-08-18T04:10:35.775Z,968.87
2017-08-18T04:11:35.772Z,968.86
2017-08-18T04:12:35.770Z,968.88
2017-08-18T04:13:35.766Z,968.87
2017-08-18T04:14:35.765Z,968.9
2017-08-18T04:15:35.762Z,968.88
2017-08-18T04:16:35.759Z,968.87
2017-08-18T04:17:35.758Z,968.88
2017-08-18T04:18:35.754Z,968.88
2017-08-18T04:19:35.752Z,968.86
2017-08-18T04:20:35.750Z,968.88
2017-08-18T04:21:35.746Z,968.84
2017-08-18T04:22:35.744Z,968.89
2017-08-18T04:23:35.739Z,968.85
2017-08-18T04:24:35.739Z,968.88
2017-08-18T04:25:35.735Z,968.91
2017-08-18T04:26:35.733Z,968.89
2017-08-18T04:27:35.730Z,968.9
2017-08-18T04:28:35.727Z,968.88
2017-08-18T04:29:35.724Z,968.9
2017-08-18T04:30:35.722Z,968.92
2017-08-18T04:31:35.719Z,968.91
2017-08-18T04:32:35.721Z,968.87
2017-08-18T04:33:35.715Z,968.87
2017-08-18T04:34:35.713Z,968.91
2017-08-18T04:35:35.710Z,968.89
2017-08-18T04:36:35.707Z,968.9
2017-08-18T04:37:35.707Z,968.87
2017-08-18T04:38:35.700Z,968.89
2017-08-18T04:39:35.699Z,968.92
2017-08-18T04:40:35.696Z,968.93
2017-08-18T04:41:35.693Z,968.94
2017-08-18T04:42:35.691Z,968.98
2017-08-18T04:43:35.689Z,969
2017-08-18T04:44:35.687Z,969.01
2017-08-18T04:45:35.682Z,969.01
2017-08-18T04:46:35.678Z,969.02
2017-08-18T04:47:35.678Z,969.06
2017-08-18T04:48:35.676Z,969.07
2017-08-18T04:49:35.672Z,969.02
2017-08-18T04:50:35.671Z,969.04
2017-08-18T04:51:35.668Z,969.03
2017-08-18T04:52:35.663Z,969.01
2017-08-18T04:53:35.662Z,969.02
2017-08-18T04:54:35.660Z,969.04
2017-08-18T04:55:35.657Z,969.02
2017-08-18T04:56:35.664Z,969.05
2017-08-18T04:57:35.653Z,969.02
2017-08-18T04:58:35.650Z,969.03
2017-08-18T04:59:35.648Z,969.05
2017-08-18T05:00:35.646Z,969.04
2017-08-18T05:01:35.643Z,969.02
2017-08-18T05:02:35.640Z,969.05
2017-08-18T05:03:35.637Z,969.06
2017-08-18T05:04:35.635Z,969.03
2017-08-18T05:05:35.633Z,968.99
2017-08-18T05:06:35.630Z,969.01
2017-08-18T05:07:35.629Z,968.98
2017-08-18T05:08:35.625Z,968.97
2017-08-18T05:09:35.623Z,968.94
2017-08-18T05:10:35.623Z,968.92
2017-08-18T05:11:35.618Z,968.93
2017-08-18T05:12:35.616Z,968.94
2017-08-18T05:13:35.613Z,968.91
2017-08-18T05:14:35.611Z,968.94
2017-08-18T05:15:35.608Z,968.93
2017-08-18T05:16:35.606Z,968.92
2017-08-18T05:17:35.604Z,968.9
2017-08-18T05:18:35.600Z,968.86
2017-08-18T05:19:35.599Z,968.89
2017-08-18T05:20:35.596Z,968.87
2017-08-18T05:21:35.595Z,968.84
2017-08-18T05:22:35.592Z,968.87
2017-08-18T05:23:35.591Z,968.82
2017-08-18T05:24:35.587Z,968.85
2017-08-18T05:25:35.586Z,968.8
2017-08-18T05:26:35.583Z,968.79
2017-08-18T05:27:35.581Z,968.81
2017-08-18T05:28:35.578Z,968.8
2017-08-18T05:29:35.575Z,968.75
2017-08-18T05:30:35.573Z,968.76
2017-08-18T05:31:35.572Z,968.76
2017-08-18T05:32:35.570Z,968.81
2017-08-18T05:33:35.566Z,968.82
2017-08-18T05:34:35.565Z,968.83
2017-08-18T05:35:35.562Z,968.89
2017-08-18T05:36:35.560Z,968.87
2017-08-18T05:37:35.558Z,968.84
2017-08-18T05:38:35.555Z,968.85
2017-08-18T05:39:35.554Z,968.83
2017-08-18T05:40:35.550Z,968.85
2017-08-18T05:41:35.551Z,968.82
2017-08-18T05:42:35.546Z,968.83
2017-08-18T05:43:35.544Z,968.81
2017-08-18T05:44:35.542Z,968.76
2017-08-18T05:45:35.540Z,968.71
2017-08-18T05:46:35.538Z,968.67
2017-08-18T05:47:35.535Z,968.68
2017-08-18T05:48:35.533Z,968.66
2017-08-18T05:49:35.531Z,968.68
2017-08-18T05:50:35.529Z,968.67
2017-08-18T05:51:35.527Z,968.67
2017-08-18T05:52:35.524Z,968.69
2017-08-18T05:53:35.523Z,968.72
2017-08-18T05:54:35.521Z,968.72
2017-08-18T05:55:35.517Z,968.72
2017-08-18T05:56:35.515Z,968.72
2017-08-18T05:57:35.513Z,968.73
2017-08-18T05:58:35.511Z,968.76
2017-08-18T05:59:35.509Z,968.71
2017-08-18T06:00:35.507Z,968.76
2017-08-18T06:01:35.506Z,968.73
2017-08-18T06:02:35.504Z,968.77
2017-08-18T06:03:35.501Z,968.73
2017-08-18T06:04:35.500Z,968.67
2017-08-18T06:05:35.497Z,968.64
2017-08-18T06:06:35.498Z,968.58
2017-08-18T06:07:35.493Z,968.5
2017-08-18T06:08:35.491Z,968.41
2017-08-18T06:09:35.489Z,968.26
2017-08-18T06:10:35.487Z,968.19
2017-08-18T06:11:35.486Z,968.16
2017-08-18T06:12:35.484Z,968.17
2017-08-18T06:13:35.481Z,968.16
2017-08-18T06:14:35.479Z,968.2
2017-08-18T06:15:35.479Z,968.23
2017-08-18T06:16:35.477Z,968.24
2017-08-18T06:17:35.478Z,968.29
2017-08-18T06:18:35.474Z,968.31
2017-08-18T06:19:35.474Z,968.3
2017-08-18T06:20:35.472Z,968.31
2017-08-18T06:21:35.470Z,968.3
2017-08-18T06:22:35.470Z,968.32
2017-08-18T06:23:35.470Z,968.3
2017-08-18T06:24:35.468Z,968.29
2017-08-18T06:25:35.466Z,968.33
2017-08-18T06:26:35.468Z,968.34
2017-08-18T06:27:35.464Z,968.36
2017-08-18T06:28:35.465Z,968.39
2017-08-18T06:29:35.464Z,968.39
2017-08-18T06:30:35.465Z,968.35
2017-08-18T06:31:35.462Z,968.39
2017-08-18T06:32:35.462Z,968.4
2017-08-18T06:33:35.461Z,968.4
2017-08-18T06:34:35.460Z,968.43
2017-08-18T06:35:35.459Z,968.41
2017-08-18T06:36:35.458Z,968.45
2017-08-18T06:37:35.458Z,968.45
2017-08-18T06:38:35.457Z,968.39
2017-08-18T06:39:35.455Z,968.47
2017-08-18T06:40:35.455Z,968.48
2017-08-18T06:41:35.459Z,968.49
2017-08-18T06:42:35.452Z,968.49
2017-08-18T06:43:35.453Z,968.47
2017-08-18T06:44:35.451Z,968.49
2017-08-18T06:45:35.451Z,968.44
2017-08-18T06:46:35.448Z,968.51
2017-08-18T06:47:35.449Z,968.52
2017-08-18T06:48:35.448Z,968.54
2017-08-18T06:49:35.450Z,968.49
2017-08-18T06:50:35.447Z,968.52
2017-08-18T06:51:35.450Z,968.51
2017-08-18T06:52:35.446Z,968.51
2017-08-18T06:53:35.445Z,968.47
2017-08-18T06:54:35.451Z,968.46
2017-08-18T06:55:35.444Z,968.51
2017-08-18T06:56:35.445Z,968.47
2017-08-18T06:57:35.444Z,968.53
2017-08-18T06:58:35.444Z,968.49
2017-08-18T06:59:35.444Z,968.52
2017-08-18T07:00:35.443Z,968.51
2017-08-18T07:01:35.443Z,968.51
2017-08-18T07:02:35.444Z,968.53
2017-08-18T07:03:35.444Z,968.55
2017-08-18T07:04:35.442Z,968.58
2017-08-18T07:05:35.443Z,968.55
2017-08-18T07:06:35.443Z,968.52
2017-08-18T07:07:35.445Z,968.53
2017-08-18T07:08:35.444Z,968.52
2017-08-18T07:09:35.443Z,968.49
2017-08-18T07:10:35.446Z,968.53
2017-08-18T07:11:35.442Z,968.5
2017-08-18T07:12:35.443Z,968.52
2017-08-18T07:13:35.443Z,968.51
2017-08-18T07:14:35.444Z,968.52
2017-08-18T07:15:35.446Z,968.54
2017-08-18T07:16:35.443Z,968.56
2017-08-18T07:17:35.445Z,968.65
2017-08-18T07:18:35.444Z,968.63
2017-08-18T07:19:35.444Z,968.64
2017-08-18T07:20:35.443Z,968.64
2017-08-18T07:21:35.446Z,968.6
2017-08-18T07:22:35.444Z,968.56
2017-08-18T07:23:35.446Z,968.64
2017-08-18T07:24:35.445Z,968.64
2017-08-18T07:25:35.445Z,968.69
2017-08-18T07:26:35.444Z,968.67
2017-08-18T07:27:35.446Z,968.61
2017-08-18T07:28:35.446Z,968.56
2017-08-18T07:29:35.446Z,968.57
2017-08-18T07:30:35.445Z,968.58
2017-08-18T07:31:35.445Z,968.49
2017-08-18T07:32:35.446Z,968.46
2017-08-18T07:33:35.445Z,968.45
2017-08-18T07:34:35.447Z,968.44
2017-08-18T07:35:35.445Z,968.39
2017-08-18T07:36:35.446Z,968.39
2017-08-18T07:37:35.444Z,968.31
2017-08-18T07:38:35.443Z,968.32
2017-08-18T07:39:35.445Z,968.33
2017-08-18T07:40:35.444Z,968.31
2017-08-18T07:41:35.445Z,968.32
2017-08-18T07:42:35.446Z,968.29
2017-08-18T07:43:35.444Z,968.29
2017-08-18T07:44:35.443Z,968.29
2017-08-18T07:45:35.442Z,968.29
2017-08-18T07:46:35.444Z,968.26
2017-08-18T07:47:35.443Z,968.18
2017-08-18T07:48:35.443Z,968.16
2017-08-18T07:49:35.443Z,968.15
2017-08-18T07:50:35.442Z,968.13
2017-08-18T07:51:35.441Z,968.11
2017-08-18T07:52:35.441Z,968.15
2017-08-18T07:53:35.442Z,968.14
2017-08-18T07:54:35.442Z,968.13
2017-08-18T07:55:35.441Z,968.16
2017-08-18T07:56:35.441Z,968.11
2017-08-18T07:57:35.439Z,968.1
2017-08-18T07:58:35.439Z,968.07
2017-08-18T07:59:35.438Z,968.06
2017-08-18T08:00:35.438Z,968.03
2017-08-18T08:01:35.437Z,968.02
2017-08-18T08:02:35.437Z,968
2017-08-18T08:03:35.436Z,968.01
2017-08-18T08:04:35.438Z,968
2017-08-18T08:05:35.434Z,968.01
2017-08-18T08:06:35.434Z,968.04
2017-08-18T08:07:35.437Z,968.07
2017-08-18T08:08:35.431Z,968.05
2017-08-18T08:09:35.433Z,968.06
2017-08-18T08:10:35.435Z,968.1
2017-08-18T08:11:35.430Z,968.08
2017-08-18T08:12:35.430Z,968.09
2017-08-18T08:13:35.428Z,968.05
2017-08-18T08:14:35.428Z,968.07
2017-08-18T08:15:35.427Z,968.1
2017-08-18T08:16:35.427Z,968.03
2017-08-18T08:17:35.429Z,968.08
2017-08-18T08:18:35.426Z,968.06
2017-08-18T08:19:35.424Z,968.09
2017-08-18T08:20:35.425Z,968.08
2017-08-18T08:21:35.423Z,968.05
2017-08-18T08:22:35.424Z,968.04
2017-08-18T08:23:35.422Z,968.07
2017-08-18T08:24:35.421Z,968.05
2017-08-18T08:25:35.419Z,968.05
2017-08-18T08:26:35.420Z,968.08
2017-08-18T08:27:35.420Z,968.09
2017-08-18T08:28:35.418Z,968.07
2017-08-18T08:29:35.418Z,968.09
2017-08-18T08:30:35.415Z,968.1
2017-08-18T08:31:35.416Z,968.08
2017-08-18T08:32:35.416Z,968.07
2017-08-18T08:33:35.415Z,968.06
2017-08-18T08:34:35.413Z,968.06
2017-08-18T08:35:35.413Z,968.09
2017-08-18T08:36:35.411Z,968.11
2017-08-18T08:37:35.411Z,968.05
2017-08-18T08:38:35.409Z,968.05
2017-08-18T08:39:35.414Z,968.07
2017-08-18T08:40:35.409Z,968.06
2017-08-18T08:41:35.408Z,968.08
2017-08-18T08:42:35.409Z,968.11
2017-08-18T08:43:35.405Z,968.07
2017-08-18T08:44:35.406Z,968.07
2017-08-18T08:45:35.405Z,968.09
2017-08-18T08:46:35.403Z,968.06
2017-08-18T08:47:35.403Z,968.05
2017-08-18T08:48:35.402Z,968.07
2017-08-18T08:49:35.402Z,968.05
2017-08-18T08:50:35.401Z,968.06
2017-08-18T08:51:35.401Z,968.05
2017-08-18T08:52:35.400Z,968.04
2017-08-18T08:53:35.400Z,968.02
2017-08-18T08:54:35.397Z,967.99
2017-08-18T08:55:35.399Z,967.98
2017-08-18T08:56:35.396Z,967.97
2017-08-18T08:57:35.395Z,967.98
2017-08-18T08:58:35.396Z,968.01
2017-08-18T08:59:35.396Z,967.96
2017-08-18T09:00:35.393Z,967.96
2017-08-18T09:01:35.393Z,967.96
2017-08-18T09:02:35.394Z,967.99
2017-08-18T09:03:35.394Z,967.97
2017-08-18T09:04:35.394Z,967.99
2017-08-18T09:05:35.389Z,967.96
2017-08-18T09:06:35.391Z,967.96
2017-08-18T09:07:35.389Z,967.94
2017-08-18T09:08:35.388Z,967.87
2017-08-18T09:09:35.386Z,967.9
2017-08-18T09:10:35.385Z,967.91
2017-08-18T09:11:35.385Z,967.87
2017-08-18T09:12:35.385Z,967.85
2017-08-18T09:13:35.385Z,967.86
2017-08-18T09:14:35.383Z,967.82
2017-08-18T09:15:35.381Z,967.8
2017-08-18T09:16:35.380Z,967.8
2017-08-18T09:17:35.380Z,967.81
2017-08-18T09:18:35.380Z,967.78
2017-08-18T09:19:35.379Z,967.78
2017-08-18T09:20:35.376Z,967.75
2017-08-18T09:21:35.376Z,967.71
2017-08-18T09:22:35.376Z,967.76
2017-08-18T09:23:35.375Z,967.72
2017-08-18T09:24:35.379Z,967.68
2017-08-18T09:25:35.374Z,967.7
2017-08-18T09:26:35.371Z,967.67
2017-08-18T09:27:35.371Z,967.68
2017-08-18T09:28:35.371Z,967.67
2017-08-18T09:29:35.370Z,967.69
2017-08-18T09:30:35.367Z,967.71
2017-08-18T09:31:35.367Z,967.69
2017-08-18T09:32:35.368Z,967.68
2017-08-18T09:33:35.366Z,967.7
2017-08-18T09:34:35.370Z,967.65
2017-08-18T09:35:35.365Z,967.64
2017-08-18T09:36:35.363Z,967.59
2017-08-18T09:37:35.361Z,967.58
2017-08-18T09:38:35.361Z,967.57
2017-08-18T09:39:35.361Z,967.58
2017-08-18T09:40:35.362Z,967.53
2017-08-18T09:41:35.357Z,967.51
2017-08-18T09:42:35.357Z,967.51
2017-08-18T09:43:35.356Z,967.5
2017-08-18T09:44:35.356Z,967.45
2017-08-18T09:45:35.360Z,967.45
2017-08-18T09:46:35.353Z,967.42
2017-08-18T09:47:35.353Z,967.41
2017-08-18T09:48:35.349Z,967.37
2017-08-18T09:49:35.351Z,967.36
2017-08-18T09:50:35.350Z,967.37
2017-08-18T09:51:35.348Z,967.37
2017-08-18T09:52:35.347Z,967.32
2017-08-18T09:53:35.345Z,967.37
2017-08-18T09:54:35.343Z,967.36
2017-08-18T09:55:35.344Z,967.35
2017-08-18T09:56:35.354Z,967.33
2017-08-18T09:57:35.341Z,967.31
2017-08-18T09:58:35.342Z,967.29
2017-08-18T09:59:35.343Z,967.28
2017-08-18T10:00:35.338Z,967.26
2017-08-18T10:01:35.337Z,967.25
2017-08-18T10:02:35.336Z,967.23
2017-08-18T10:03:35.335Z,967.24
2017-08-18T10:04:35.334Z,967.22
2017-08-18T10:05:35.334Z,967.2
2017-08-18T10:06:35.333Z,967.22
2017-08-18T10:07:35.330Z,967.16
2017-08-18T10:08:35.330Z,967.14
2017-08-18T10:09:35.330Z,967.13
2017-08-18T10:10:35.326Z,967.14
2017-08-18T10:11:35.325Z,967.09
2017-08-18T10:12:35.324Z,967.07
2017-08-18T10:13:35.324Z,967.07
2017-08-18T10:14:35.322Z,967.06
2017-08-18T10:15:35.321Z,967.05
2017-08-18T10:16:35.323Z,967.03
2017-08-18T10:17:35.318Z,967.03
2017-08-18T10:18:35.318Z,967.02
2017-08-18T10:19:35.316Z,966.98
2017-08-18T10:20:35.315Z,966.98
2017-08-18T10:21:35.318Z,966.97
2017-08-18T10:22:35.312Z,966.95
2017-08-18T10:23:35.310Z,966.97
2017-08-18T10:24:35.310Z,966.95
2017-08-18T10:25:35.313Z,966.96
2017-08-18T10:26:35.308Z,966.93
2017-08-18T10:27:35.306Z,966.91
2017-08-18T10:28:35.308Z,966.87
2017-08-18T10:29:35.307Z,966.86
2017-08-18T10:30:35.304Z,966.85
2017-08-18T10:31:35.302Z,966.84
2017-08-18T10:32:35.302Z,966.84
2017-08-18T10:33:35.300Z,966.85
2017-08-18T10:34:35.299Z,966.83
2017-08-18T10:35:35.298Z,966.83
2017-08-18T10:36:35.296Z,966.81
2017-08-18T10:37:35.295Z,966.8
2017-08-18T10:38:35.296Z,966.81
2017-08-18T10:39:35.296Z,966.77
2017-08-18T10:40:35.291Z,966.77
2017-08-18T10:41:35.291Z,966.73
2017-08-18T10:42:35.289Z,966.72
2017-08-18T10:43:35.288Z,966.67
2017-08-18T10:44:35.287Z,966.67
2017-08-18T10:45:35.286Z,966.63
2017-08-18T10:46:35.285Z,966.63
2017-08-18T10:47:35.284Z,966.61
2017-08-18T10:48:35.282Z,966.57
2017-08-18T10:49:35.280Z,966.54
2017-08-18T10:50:35.279Z,966.53
2017-08-18T10:51:35.281Z,966.54
2017-08-18T10:52:35.276Z,966.51
2017-08-18T10:53:35.275Z,966.51
2017-08-18T10:54:35.273Z,966.49
2017-08-18T10:55:35.273Z,966.46
2017-08-18T10:56:35.273Z,966.43
2017-08-18T10:57:35.271Z,966.42
2017-08-18T10:58:35.269Z,966.43
2017-08-18T10:59:35.269Z,966.46
2017-08-18T11:00:35.267Z,966.44
2017-08-18T11:01:35.267Z,966.41
2017-08-18T11:02:35.264Z,966.4
2017-08-18T11:03:35.264Z,966.4
2017-08-18T11:04:35.262Z,966.38
2017-08-18T11:05:35.264Z,966.39
2017-08-18T11:06:35.258Z,966.37
2017-08-18T11:07:35.259Z,966.38
2017-08-18T11:08:35.257Z,966.37
2017-08-18T11:09:35.256Z,966.35
2017-08-18T11:10:35.254Z,966.32
2017-08-18T11:11:35.252Z,966.33
2017-08-18T11:12:35.252Z,966.31
2017-08-18T11:13:35.250Z,966.28
2017-08-18T11:14:35.249Z,966.28
2017-08-18T11:15:35.248Z,966.26
2017-08-18T11:16:35.247Z,966.26
2017-08-18T11:17:35.245Z,966.24
2017-08-18T11:18:35.245Z,966.24
2017-08-18T11:19:35.245Z,966.25
2017-08-18T11:20:35.243Z,966.23
2017-08-18T11:21:35.240Z,966.24
2017-08-18T11:22:35.239Z,966.2
2017-08-18T11:23:35.238Z,966.19
2017-08-18T11:24:35.237Z,966.17
2017-08-18T11:25:35.237Z,966.14
2017-08-18T11:26:35.236Z,966.16
2017-08-18T11:27:35.234Z,966.11
2017-08-18T11:28:35.233Z,966.1
2017-08-18T11:29:35.229Z,966.08
2017-08-18T11:30:35.229Z,966.09
2017-08-18T11:31:35.229Z,966.04
2017-08-18T11:32:35.226Z,966.05
2017-08-18T11:33:35.229Z,966.04
2017-08-18T11:34:35.224Z,966.03
2017-08-18T11:35:35.223Z,966
2017-08-18T11:36:35.222Z,965.98
2017-08-18T11:37:35.222Z,965.99
2017-08-18T11:38:35.321Z,966.01
2017-08-18T11:39:35.224Z,965.95
2017-08-18T11:40:35.217Z,965.97
2017-08-18T11:41:35.217Z,965.97
2017-08-18T11:42:35.214Z,965.94
2017-08-18T11:43:35.214Z,965.91
2017-08-18T11:44:35.213Z,965.92
2017-08-18T11:45:35.211Z,965.83
2017-08-18T11:46:35.209Z,965.87
2017-08-18T11:47:35.207Z,965.82
2017-08-18T11:48:35.207Z,965.84
2017-08-18T11:49:35.206Z,965.78
2017-08-18T11:50:35.205Z,965.73
2017-08-18T11:51:35.203Z,965.73
2017-08-18T11:52:35.203Z,965.73
2017-08-18T11:53:35.203Z,965.73
2017-08-18T11:54:35.208Z,965.68
2017-08-18T11:55:35.200Z,965.67
2017-08-18T11:56:35.196Z,965.68
2017-08-18T11:57:35.198Z,965.65
2017-08-18T11:58:35.196Z,965.64
2017-08-18T11:59:35.196Z,965.6
2017-08-18T12:00:35.193Z,965.58
2017-08-18T12:01:35.192Z,965.62
2017-08-18T12:02:35.193Z,965.6
2017-08-18T12:03:35.189Z,965.54
2017-08-18T12:04:35.188Z,965.53
2017-08-18T12:05:35.187Z,965.51
2017-08-18T12:06:35.188Z,965.46
2017-08-18T12:07:35.185Z,965.5
2017-08-18T12:08:35.184Z,965.49
2017-08-18T12:09:35.184Z,965.47
2017-08-18T12:10:35.183Z,965.45
2017-08-18T12:11:35.181Z,965.43
2017-08-18T12:12:35.180Z,965.42
2017-08-18T12:13:35.178Z,965.48
2017-08-18T12:14:35.177Z,965.47
2017-08-18T12:15:35.177Z,965.49
2017-08-18T12:16:35.173Z,965.48
2017-08-18T12:17:35.173Z,965.49
2017-08-18T12:18:35.171Z,965.51
2017-08-18T12:19:35.172Z,965.46
2017-08-18T12:20:35.170Z,965.42
2017-08-18T12:21:35.170Z,965.36
2017-08-18T12:22:35.166Z,965.31
2017-08-18T12:23:35.166Z,965.28
2017-08-18T12:24:35.165Z,965.3
2017-08-18T12:25:35.165Z,965.27
2017-08-18T12:26:35.161Z,965.25
2017-08-18T12:27:35.181Z,965.23
2017-08-18T12:28:35.161Z,965.22
2017-08-18T12:29:35.159Z,965.21
2017-08-18T12:30:35.159Z,965.21
2017-08-18T12:31:35.157Z,965.17